sensor_id;sensor_type;location;lat;lon;timestamp;P1;durP1;ratioP1;P2;durP2;ratioP2
59145;SDS011;44928;53.074;6.646;2023-02-18T00:02:13;14.23;;;2.20;;
59145;SDS011;44928;53.074;6.646;2023-02-18T00:04:39;13.65;;;2.45;;
59145;SDS011;44928;53.074;6.646;2023-02-18T00:07:05;15.68;;;3.08;;
59145;SDS011;44928;53.074;6.646;2023-02-18T00:09:30;14.07;;;2.70;;
59145;SDS011;44928;53.074;6.646;2023-02-18T00:11:56;14.40;;;2.30;;
59145;SDS011;44928;53.074;6.646;2023-02-18T00:14:22;14.57;;;2.67;;
59145;SDS011;44928;53.074;6.646;2023-02-18T00:16:48;13.07;;;2.60;;
59145;SDS011;44928;53.074;6.646;2023-02-18T00:19:15;12.05;;;2.10;;
59145;SDS011;44928;53.074;6.646;2023-02-18T00:21:42;15.18;;;2.60;;
59145;SDS011;44928;53.074;6.646;2023-02-18T00:24:09;13.75;;;2.40;;
59145;SDS011;44928;53.074;6.646;2023-02-18T00:26:39;16.95;;;2.88;;
59145;SDS011;44928;53.074;6.646;2023-02-18T00:29:05;17.20;;;3.25;;
59145;SDS011;44928;53.074;6.646;2023-02-18T00:31:32;19.20;;;3.10;;
59145;SDS011;44928;53.074;6.646;2023-02-18T00:34:00;13.75;;;2.58;;
59145;SDS011;44928;53.074;6.646;2023-02-18T00:36:26;12.63;;;2.65;;
59145;SDS011;44928;53.074;6.646;2023-02-18T00:38:53;12.70;;;2.42;;
59145;SDS011;44928;53.074;6.646;2023-02-18T00:41:21;15.10;;;2.50;;
59145;SDS011;44928;53.074;6.646;2023-02-18T00:43:48;13.20;;;2.00;;
59145;SDS011;44928;53.074;6.646;2023-02-18T00:46:14;12.68;;;2.42;;
59145;SDS011;44928;53.074;6.646;2023-02-18T00:48:40;17.58;;;3.15;;
59145;SDS011;44928;53.074;6.646;2023-02-18T00:51:06;14.27;;;2.53;;
59145;SDS011;44928;53.074;6.646;2023-02-18T00:53:33;12.25;;;1.90;;
59145;SDS011;44928;53.074;6.646;2023-02-18T00:55:59;12.70;;;2.15;;
59145;SDS011;44928;53.074;6.646;2023-02-18T00:58:25;11.38;;;2.35;;
59145;SDS011;44928;53.074;6.646;2023-02-18T01:00:51;14.77;;;2.72;;
59145;SDS011;44928;53.074;6.646;2023-02-18T01:03:18;12.82;;;2.78;;
59145;SDS011;44928;53.074;6.646;2023-02-18T01:05:44;14.32;;;2.10;;
59145;SDS011;44928;53.074;6.646;2023-02-18T01:08:11;14.77;;;2.60;;
59145;SDS011;44928;53.074;6.646;2023-02-18T01:10:40;16.40;;;2.72;;
59145;SDS011;44928;53.074;6.646;2023-02-18T01:13:07;11.63;;;2.35;;
59145;SDS011;44928;53.074;6.646;2023-02-18T01:15:33;12.10;;;2.50;;
59145;SDS011;44928;53.074;6.646;2023-02-18T01:17:59;12.70;;;2.65;;
59145;SDS011;44928;53.074;6.646;2023-02-18T01:20:24;14.07;;;2.40;;
59145;SDS011;44928;53.074;6.646;2023-02-18T01:22:51;15.00;;;2.78;;
59145;SDS011;44928;53.074;6.646;2023-02-18T01:25:16;13.65;;;2.40;;
59145;SDS011;44928;53.074;6.646;2023-02-18T01:27:42;13.95;;;3.10;;
59145;SDS011;44928;53.074;6.646;2023-02-18T01:30:11;16.25;;;3.05;;
59145;SDS011;44928;53.074;6.646;2023-02-18T01:32:38;13.60;;;2.13;;
59145;SDS011;44928;53.074;6.646;2023-02-18T01:35:04;19.48;;;3.75;;
59145;SDS011;44928;53.074;6.646;2023-02-18T01:37:31;15.93;;;2.97;;
59145;SDS011;44928;53.074;6.646;2023-02-18T01:39:57;15.77;;;2.88;;
59145;SDS011;44928;53.074;6.646;2023-02-18T01:42:24;14.68;;;3.05;;
59145;SDS011;44928;53.074;6.646;2023-02-18T01:44:52;14.60;;;2.53;;
59145;SDS011;44928;53.074;6.646;2023-02-18T01:47:18;13.32;;;2.55;;
59145;SDS011;44928;53.074;6.646;2023-02-18T01:49:45;16.23;;;3.42;;
59145;SDS011;44928;53.074;6.646;2023-02-18T01:52:17;13.95;;;2.40;;
59145;SDS011;44928;53.074;6.646;2023-02-18T01:54:48;15.75;;;2.70;;
59145;SDS011;44928;53.074;6.646;2023-02-18T01:57:23;15.02;;;2.58;;
59145;SDS011;44928;53.074;6.646;2023-02-18T02:00:05;11.82;;;3.28;;
59145;SDS011;44928;53.074;6.646;2023-02-18T02:02:36;18.38;;;2.72;;
59145;SDS011;44928;53.074;6.646;2023-02-18T02:05:06;18.38;;;3.22;;
59145;SDS011;44928;53.074;6.646;2023-02-18T02:07:32;16.45;;;3.70;;
59145;SDS011;44928;53.074;6.646;2023-02-18T02:09:59;12.85;;;2.78;;
59145;SDS011;44928;53.074;6.646;2023-02-18T02:35:12;16.90;;;3.53;;
59145;SDS011;44928;53.074;6.646;2023-02-18T02:37:54;16.92;;;4.18;;
59145;SDS011;44928;53.074;6.646;2023-02-18T02:40:24;14.80;;;3.55;;
59145;SDS011;44928;53.074;6.646;2023-02-18T02:46:02;18.10;;;4.18;;
59145;SDS011;44928;53.074;6.646;2023-02-18T02:48:37;18.42;;;4.63;;
59145;SDS011;44928;53.074;6.646;2023-02-18T02:51:12;14.57;;;4.63;;
59145;SDS011;44928;53.074;6.646;2023-02-18T02:53:46;13.43;;;4.00;;
59145;SDS011;44928;53.074;6.646;2023-02-18T02:56:15;21.13;;;5.55;;
59145;SDS011;44928;53.074;6.646;2023-02-18T02:58:46;15.60;;;5.32;;
59145;SDS011;44928;53.074;6.646;2023-02-18T03:01:40;21.08;;;4.93;;
59145;SDS011;44928;53.074;6.646;2023-02-18T03:12:19;20.45;;;5.45;;
59145;SDS011;44928;53.074;6.646;2023-02-18T03:17:29;22.40;;;5.60;;
59145;SDS011;44928;53.074;6.646;2023-02-18T03:20:06;15.55;;;4.97;;
59145;SDS011;44928;53.074;6.646;2023-02-18T03:22:59;14.93;;;5.18;;
59145;SDS011;44928;53.074;6.646;2023-02-18T03:25:30;18.00;;;5.00;;
59145;SDS011;44928;53.074;6.646;2023-02-18T03:27:58;17.00;;;5.43;;
59145;SDS011;44928;53.074;6.646;2023-02-18T03:30:43;16.30;;;5.25;;
59145;SDS011;44928;53.074;6.646;2023-02-18T03:33:22;15.95;;;5.20;;
59145;SDS011;44928;53.074;6.646;2023-02-18T03:35:54;16.75;;;5.70;;
59145;SDS011;44928;53.074;6.646;2023-02-18T03:41:05;13.48;;;4.32;;
59145;SDS011;44928;53.074;6.646;2023-02-18T03:43:30;22.50;;;5.60;;
59145;SDS011;44928;53.074;6.646;2023-02-18T03:45:56;14.55;;;4.82;;
59145;SDS011;44928;53.074;6.646;2023-02-18T03:48:23;15.52;;;5.00;;
59145;SDS011;44928;53.074;6.646;2023-02-18T03:50:49;16.23;;;4.57;;
59145;SDS011;44928;53.074;6.646;2023-02-18T03:53:15;19.20;;;5.13;;
59145;SDS011;44928;53.074;6.646;2023-02-18T03:55:40;15.20;;;4.82;;
59145;SDS011;44928;53.074;6.646;2023-02-18T03:58:07;12.95;;;4.30;;
59145;SDS011;44928;53.074;6.646;2023-02-18T04:00:32;15.77;;;4.72;;
59145;SDS011;44928;53.074;6.646;2023-02-18T04:02:58;13.95;;;4.53;;
59145;SDS011;44928;53.074;6.646;2023-02-18T04:05:24;16.23;;;4.45;;
59145;SDS011;44928;53.074;6.646;2023-02-18T04:07:50;14.05;;;4.30;;
59145;SDS011;44928;53.074;6.646;2023-02-18T04:10:16;15.43;;;4.97;;
59145;SDS011;44928;53.074;6.646;2023-02-18T04:12:41;16.90;;;4.70;;
59145;SDS011;44928;53.074;6.646;2023-02-18T04:15:07;15.07;;;5.28;;
59145;SDS011;44928;53.074;6.646;2023-02-18T04:17:33;17.83;;;5.95;;
59145;SDS011;44928;53.074;6.646;2023-02-18T04:20:00;15.48;;;5.82;;
59145;SDS011;44928;53.074;6.646;2023-02-18T04:22:26;19.98;;;6.53;;
59145;SDS011;44928;53.074;6.646;2023-02-18T04:24:51;22.67;;;7.43;;
59145;SDS011;44928;53.074;6.646;2023-02-18T04:27:17;18.10;;;7.03;;
59145;SDS011;44928;53.074;6.646;2023-02-18T04:29:43;22.15;;;8.15;;
59145;SDS011;44928;53.074;6.646;2023-02-18T04:32:10;24.38;;;9.35;;
59145;SDS011;44928;53.074;6.646;2023-02-18T04:34:36;21.60;;;9.68;;
59145;SDS011;44928;53.074;6.646;2023-02-18T04:37:02;21.08;;;9.10;;
59145;SDS011;44928;53.074;6.646;2023-02-18T04:39:28;22.90;;;10.07;;
59145;SDS011;44928;53.074;6.646;2023-02-18T04:41:53;25.25;;;11.63;;
59145;SDS011;44928;53.074;6.646;2023-02-18T04:44:19;28.15;;;12.75;;
59145;SDS011;44928;53.074;6.646;2023-02-18T04:46:45;28.20;;;13.43;;
59145;SDS011;44928;53.074;6.646;2023-02-18T04:49:11;32.17;;;13.80;;
59145;SDS011;44928;53.074;6.646;2023-02-18T04:51:37;30.67;;;13.73;;
59145;SDS011;44928;53.074;6.646;2023-02-18T04:54:03;41.00;;;16.55;;
59145;SDS011;44928;53.074;6.646;2023-02-18T04:56:29;34.90;;;15.68;;
59145;SDS011;44928;53.074;6.646;2023-02-18T04:58:55;33.85;;;15.73;;
59145;SDS011;44928;53.074;6.646;2023-02-18T05:01:21;37.72;;;17.15;;
59145;SDS011;44928;53.074;6.646;2023-02-18T05:03:47;38.20;;;16.20;;
59145;SDS011;44928;53.074;6.646;2023-02-18T05:06:12;37.22;;;16.95;;
59145;SDS011;44928;53.074;6.646;2023-02-18T05:08:38;47.95;;;17.52;;
59145;SDS011;44928;53.074;6.646;2023-02-18T05:11:05;38.47;;;18.05;;
59145;SDS011;44928;53.074;6.646;2023-02-18T05:13:31;37.35;;;17.75;;
59145;SDS011;44928;53.074;6.646;2023-02-18T05:15:57;40.83;;;18.60;;
59145;SDS011;44928;53.074;6.646;2023-02-18T05:18:23;43.85;;;19.30;;
59145;SDS011;44928;53.074;6.646;2023-02-18T05:20:48;41.58;;;20.85;;
59145;SDS011;44928;53.074;6.646;2023-02-18T05:23:14;42.05;;;20.35;;
59145;SDS011;44928;53.074;6.646;2023-02-18T05:25:40;37.20;;;18.90;;
59145;SDS011;44928;53.074;6.646;2023-02-18T05:28:06;42.70;;;20.20;;
59145;SDS011;44928;53.074;6.646;2023-02-18T05:30:31;44.88;;;21.02;;
59145;SDS011;44928;53.074;6.646;2023-02-18T05:32:57;47.90;;;20.63;;
59145;SDS011;44928;53.074;6.646;2023-02-18T05:35:23;43.58;;;20.95;;
59145;SDS011;44928;53.074;6.646;2023-02-18T05:37:49;37.25;;;20.30;;
59145;SDS011;44928;53.074;6.646;2023-02-18T05:40:14;38.85;;;20.90;;
59145;SDS011;44928;53.074;6.646;2023-02-18T05:42:40;38.17;;;19.85;;
59145;SDS011;44928;53.074;6.646;2023-02-18T05:45:06;39.25;;;20.85;;
59145;SDS011;44928;53.074;6.646;2023-02-18T05:47:32;39.03;;;19.85;;
59145;SDS011;44928;53.074;6.646;2023-02-18T05:49:58;46.83;;;21.20;;
59145;SDS011;44928;53.074;6.646;2023-02-18T05:52:24;40.55;;;19.83;;
59145;SDS011;44928;53.074;6.646;2023-02-18T05:54:50;37.63;;;19.95;;
59145;SDS011;44928;53.074;6.646;2023-02-18T05:57:16;37.03;;;18.65;;
59145;SDS011;44928;53.074;6.646;2023-02-18T05:59:42;33.13;;;17.77;;
59145;SDS011;44928;53.074;6.646;2023-02-18T06:02:08;40.00;;;18.50;;
59145;SDS011;44928;53.074;6.646;2023-02-18T06:04:34;31.77;;;16.60;;
59145;SDS011;44928;53.074;6.646;2023-02-18T06:06:59;30.55;;;16.83;;
59145;SDS011;44928;53.074;6.646;2023-02-18T06:09:28;29.55;;;16.48;;
59145;SDS011;44928;53.074;6.646;2023-02-18T06:11:54;27.80;;;15.45;;
59145;SDS011;44928;53.074;6.646;2023-02-18T06:14:19;34.30;;;16.00;;
59145;SDS011;44928;53.074;6.646;2023-02-18T06:16:45;28.40;;;14.65;;
59145;SDS011;44928;53.074;6.646;2023-02-18T06:19:11;29.83;;;15.38;;
59145;SDS011;44928;53.074;6.646;2023-02-18T06:21:37;24.27;;;13.43;;
59145;SDS011;44928;53.074;6.646;2023-02-18T06:24:03;26.40;;;13.82;;
59145;SDS011;44928;53.074;6.646;2023-02-18T06:26:29;28.65;;;13.35;;
59145;SDS011;44928;53.074;6.646;2023-02-18T06:28:55;26.77;;;12.88;;
59145;SDS011;44928;53.074;6.646;2023-02-18T06:31:21;33.08;;;13.65;;
59145;SDS011;44928;53.074;6.646;2023-02-18T06:33:46;25.02;;;12.00;;
59145;SDS011;44928;53.074;6.646;2023-02-18T06:36:12;23.80;;;11.27;;
59145;SDS011;44928;53.074;6.646;2023-02-18T06:38:38;19.65;;;10.20;;
59145;SDS011;44928;53.074;6.646;2023-02-18T06:41:06;18.13;;;9.27;;
59145;SDS011;44928;53.074;6.646;2023-02-18T06:43:31;20.40;;;10.73;;
59145;SDS011;44928;53.074;6.646;2023-02-18T06:45:57;14.93;;;8.10;;
59145;SDS011;44928;53.074;6.646;2023-02-18T06:48:23;15.63;;;8.40;;
59145;SDS011;44928;53.074;6.646;2023-02-18T06:50:49;15.18;;;7.38;;
59145;SDS011;44928;53.074;6.646;2023-02-18T06:53:15;15.82;;;8.57;;
59145;SDS011;44928;53.074;6.646;2023-02-18T06:55:41;15.25;;;8.07;;
59145;SDS011;44928;53.074;6.646;2023-02-18T06:58:08;15.40;;;8.23;;
59145;SDS011;44928;53.074;6.646;2023-02-18T07:00:38;14.02;;;8.73;;
59145;SDS011;44928;53.074;6.646;2023-02-18T07:03:05;14.90;;;8.30;;
59145;SDS011;44928;53.074;6.646;2023-02-18T07:05:31;14.82;;;8.80;;
59145;SDS011;44928;53.074;6.646;2023-02-18T07:07:57;14.98;;;9.15;;
59145;SDS011;44928;53.074;6.646;2023-02-18T07:10:23;15.20;;;9.00;;
59145;SDS011;44928;53.074;6.646;2023-02-18T07:12:49;15.55;;;9.88;;
59145;SDS011;44928;53.074;6.646;2023-02-18T07:15:15;16.85;;;10.13;;
59145;SDS011;44928;53.074;6.646;2023-02-18T07:17:41;18.48;;;10.57;;
59145;SDS011;44928;53.074;6.646;2023-02-18T07:20:07;18.95;;;12.02;;
59145;SDS011;44928;53.074;6.646;2023-02-18T07:22:33;21.58;;;11.82;;
59145;SDS011;44928;53.074;6.646;2023-02-18T07:24:59;17.92;;;10.95;;
59145;SDS011;44928;53.074;6.646;2023-02-18T07:27:25;18.88;;;10.85;;
59145;SDS011;44928;53.074;6.646;2023-02-18T07:29:51;18.17;;;11.35;;
59145;SDS011;44928;53.074;6.646;2023-02-18T07:32:17;16.42;;;8.20;;
59145;SDS011;44928;53.074;6.646;2023-02-18T07:34:44;16.80;;;10.55;;
59145;SDS011;44928;53.074;6.646;2023-02-18T07:37:10;20.73;;;9.60;;
59145;SDS011;44928;53.074;6.646;2023-02-18T07:39:39;17.63;;;10.10;;
59145;SDS011;44928;53.074;6.646;2023-02-18T07:42:07;17.63;;;9.88;;
59145;SDS011;44928;53.074;6.646;2023-02-18T07:44:34;15.98;;;9.55;;
59145;SDS011;44928;53.074;6.646;2023-02-18T07:47:00;15.98;;;9.07;;
59145;SDS011;44928;53.074;6.646;2023-02-18T07:49:27;14.15;;;6.55;;
59145;SDS011;44928;53.074;6.646;2023-02-18T07:51:53;16.48;;;9.40;;
59145;SDS011;44928;53.074;6.646;2023-02-18T07:54:18;14.93;;;7.20;;
59145;SDS011;44928;53.074;6.646;2023-02-18T07:56:44;16.27;;;9.05;;
59145;SDS011;44928;53.074;6.646;2023-02-18T07:59:10;16.75;;;7.72;;
59145;SDS011;44928;53.074;6.646;2023-02-18T08:01:40;14.07;;;7.15;;
59145;SDS011;44928;53.074;6.646;2023-02-18T08:04:09;15.20;;;8.05;;
59145;SDS011;44928;53.074;6.646;2023-02-18T08:06:39;14.02;;;7.38;;
59145;SDS011;44928;53.074;6.646;2023-02-18T08:09:07;13.85;;;7.45;;
59145;SDS011;44928;53.074;6.646;2023-02-18T08:11:33;15.98;;;8.50;;
59145;SDS011;44928;53.074;6.646;2023-02-18T08:13:59;17.27;;;7.43;;
59145;SDS011;44928;53.074;6.646;2023-02-18T08:16:25;14.40;;;6.22;;
59145;SDS011;44928;53.074;6.646;2023-02-18T08:18:51;17.85;;;6.57;;
59145;SDS011;44928;53.074;6.646;2023-02-18T08:21:18;16.65;;;5.57;;
59145;SDS011;44928;53.074;6.646;2023-02-18T08:23:45;11.88;;;4.65;;
59145;SDS011;44928;53.074;6.646;2023-02-18T08:26:12;12.68;;;5.07;;
59145;SDS011;44928;53.074;6.646;2023-02-18T08:28:38;16.25;;;5.47;;
59145;SDS011;44928;53.074;6.646;2023-02-18T08:31:04;12.90;;;5.03;;
59145;SDS011;44928;53.074;6.646;2023-02-18T08:33:30;13.32;;;5.07;;
59145;SDS011;44928;53.074;6.646;2023-02-18T08:35:56;12.73;;;4.47;;
59145;SDS011;44928;53.074;6.646;2023-02-18T08:38:22;15.30;;;5.00;;
59145;SDS011;44928;53.074;6.646;2023-02-18T08:40:49;13.07;;;5.28;;
59145;SDS011;44928;53.074;6.646;2023-02-18T08:43:15;11.50;;;4.60;;
59145;SDS011;44928;53.074;6.646;2023-02-18T08:45:43;14.50;;;4.68;;
59145;SDS011;44928;53.074;6.646;2023-02-18T08:48:09;14.82;;;4.68;;
59145;SDS011;44928;53.074;6.646;2023-02-18T08:50:37;14.05;;;4.70;;
59145;SDS011;44928;53.074;6.646;2023-02-18T08:53:03;13.65;;;4.65;;
59145;SDS011;44928;53.074;6.646;2023-02-18T08:55:30;15.07;;;4.65;;
59145;SDS011;44928;53.074;6.646;2023-02-18T08:57:59;14.57;;;4.50;;
59145;SDS011;44928;53.074;6.646;2023-02-18T09:00:25;11.88;;;3.58;;
59145;SDS011;44928;53.074;6.646;2023-02-18T09:02:51;9.88;;;3.53;;
59145;SDS011;44928;53.074;6.646;2023-02-18T09:05:17;9.15;;;3.80;;
59145;SDS011;44928;53.074;6.646;2023-02-18T09:07:43;10.88;;;3.80;;
59145;SDS011;44928;53.074;6.646;2023-02-18T09:10:09;12.25;;;4.60;;
59145;SDS011;44928;53.074;6.646;2023-02-18T09:12:35;9.98;;;3.83;;
59145;SDS011;44928;53.074;6.646;2023-02-18T09:15:01;12.65;;;4.18;;
59145;SDS011;44928;53.074;6.646;2023-02-18T09:17:27;10.10;;;2.97;;
59145;SDS011;44928;53.074;6.646;2023-02-18T09:19:53;11.13;;;3.47;;
59145;SDS011;44928;53.074;6.646;2023-02-18T09:22:19;12.45;;;3.67;;
59145;SDS011;44928;53.074;6.646;2023-02-18T09:24:45;9.80;;;2.95;;
59145;SDS011;44928;53.074;6.646;2023-02-18T09:27:11;7.45;;;2.45;;
59145;SDS011;44928;53.074;6.646;2023-02-18T09:29:38;7.60;;;2.60;;
59145;SDS011;44928;53.074;6.646;2023-02-18T09:32:05;10.63;;;2.92;;
59145;SDS011;44928;53.074;6.646;2023-02-18T09:34:31;12.45;;;3.00;;
59145;SDS011;44928;53.074;6.646;2023-02-18T09:36:57;7.78;;;2.85;;
59145;SDS011;44928;53.074;6.646;2023-02-18T09:39:23;9.68;;;3.00;;
59145;SDS011;44928;53.074;6.646;2023-02-18T09:41:50;12.02;;;2.40;;
59145;SDS011;44928;53.074;6.646;2023-02-18T09:45:02;13.05;;;3.88;;
59145;SDS011;44928;53.074;6.646;2023-02-18T09:49:40;8.43;;;2.40;;
59145;SDS011;44928;53.074;6.646;2023-02-18T09:52:11;11.15;;;2.83;;
59145;SDS011;44928;53.074;6.646;2023-02-18T09:54:40;9.52;;;2.90;;
59145;SDS011;44928;53.074;6.646;2023-02-18T09:57:06;10.05;;;2.55;;
59145;SDS011;44928;53.074;6.646;2023-02-18T09:59:47;12.70;;;2.75;;
59145;SDS011;44928;53.074;6.646;2023-02-18T10:02:19;10.70;;;3.30;;
59145;SDS011;44928;53.074;6.646;2023-02-18T10:04:45;11.27;;;3.05;;
59145;SDS011;44928;53.074;6.646;2023-02-18T10:10:21;10.90;;;2.92;;
59145;SDS011;44928;53.074;6.646;2023-02-18T10:12:57;12.45;;;2.30;;
59145;SDS011;44928;53.074;6.646;2023-02-18T10:15:28;11.27;;;1.98;;
59145;SDS011;44928;53.074;6.646;2023-02-18T10:17:56;10.77;;;2.75;;
59145;SDS011;44928;53.074;6.646;2023-02-18T10:20:23;14.40;;;2.45;;
59145;SDS011;44928;53.074;6.646;2023-02-18T10:25:21;8.75;;;1.83;;
59145;SDS011;44928;53.074;6.646;2023-02-18T10:27:49;12.32;;;1.90;;
59145;SDS011;44928;53.074;6.646;2023-02-18T10:30:26;13.68;;;2.28;;
59145;SDS011;44928;53.074;6.646;2023-02-18T10:33:05;12.40;;;2.08;;
59145;SDS011;44928;53.074;6.646;2023-02-18T10:35:58;7.82;;;1.45;;
59145;SDS011;44928;53.074;6.646;2023-02-18T10:46:33;15.25;;;2.78;;
59145;SDS011;44928;53.074;6.646;2023-02-18T10:51:52;12.60;;;2.00;;
59145;SDS011;44928;53.074;6.646;2023-02-18T10:54:26;12.18;;;2.50;;
59145;SDS011;44928;53.074;6.646;2023-02-18T10:59:45;13.23;;;2.63;;
59145;SDS011;44928;53.074;6.646;2023-02-18T11:02:39;11.35;;;2.22;;
59145;SDS011;44928;53.074;6.646;2023-02-18T11:05:15;14.43;;;2.55;;
59145;SDS011;44928;53.074;6.646;2023-02-18T11:07:44;10.38;;;1.85;;
59145;SDS011;44928;53.074;6.646;2023-02-18T11:10:15;11.65;;;1.75;;
59145;SDS011;44928;53.074;6.646;2023-02-18T11:12:50;10.13;;;2.00;;
59145;SDS011;44928;53.074;6.646;2023-02-18T11:15:25;9.63;;;2.38;;
59145;SDS011;44928;53.074;6.646;2023-02-18T11:17:56;13.23;;;2.33;;
59145;SDS011;44928;53.074;6.646;2023-02-18T11:20:35;10.65;;;1.80;;
59145;SDS011;44928;53.074;6.646;2023-02-18T11:25:33;11.80;;;1.98;;
59145;SDS011;44928;53.074;6.646;2023-02-18T11:28:04;12.00;;;2.08;;
59145;SDS011;44928;53.074;6.646;2023-02-18T11:35:39;13.00;;;4.10;;
59145;SDS011;44928;53.074;6.646;2023-02-18T11:38:28;11.82;;;2.50;;
59145;SDS011;44928;53.074;6.646;2023-02-18T11:41:05;9.70;;;2.00;;
59145;SDS011;44928;53.074;6.646;2023-02-18T11:43:33;13.05;;;2.55;;
59145;SDS011;44928;53.074;6.646;2023-02-18T11:46:11;10.40;;;2.03;;
59145;SDS011;44928;53.074;6.646;2023-02-18T11:48:38;12.80;;;2.63;;
59145;SDS011;44928;53.074;6.646;2023-02-18T11:51:07;16.52;;;3.90;;
59145;SDS011;44928;53.074;6.646;2023-02-18T11:53:55;10.50;;;2.10;;
59145;SDS011;44928;53.074;6.646;2023-02-18T11:56:24;11.88;;;2.92;;
59145;SDS011;44928;53.074;6.646;2023-02-18T11:58:56;10.55;;;2.33;;
59145;SDS011;44928;53.074;6.646;2023-02-18T12:01:37;12.40;;;1.95;;
59145;SDS011;44928;53.074;6.646;2023-02-18T12:04:15;15.32;;;2.53;;
59145;SDS011;44928;53.074;6.646;2023-02-18T12:06:56;9.52;;;1.67;;
59145;SDS011;44928;53.074;6.646;2023-02-18T12:09:30;8.30;;;1.63;;
59145;SDS011;44928;53.074;6.646;2023-02-18T12:12:35;11.57;;;2.00;;
59145;SDS011;44928;53.074;6.646;2023-02-18T12:15:13;12.40;;;2.13;;
59145;SDS011;44928;53.074;6.646;2023-02-18T12:17:48;14.40;;;3.25;;
59145;SDS011;44928;53.074;6.646;2023-02-18T12:25:24;6.90;;;1.58;;
59145;SDS011;44928;53.074;6.646;2023-02-18T12:30:47;10.27;;;2.35;;
59145;SDS011;44928;53.074;6.646;2023-02-18T13:14:45;13.20;;;1.98;;
59145;SDS011;44928;53.074;6.646;2023-02-18T13:17:21;12.32;;;2.63;;
59145;SDS011;44928;53.074;6.646;2023-02-18T13:19:51;11.25;;;2.35;;
59145;SDS011;44928;53.074;6.646;2023-02-18T13:22:23;10.88;;;1.95;;
59145;SDS011;44928;53.074;6.646;2023-02-18T13:24:51;13.50;;;1.98;;
59145;SDS011;44928;53.074;6.646;2023-02-18T13:30:15;11.77;;;2.08;;
59145;SDS011;44928;53.074;6.646;2023-02-18T13:32:52;9.70;;;1.52;;
59145;SDS011;44928;53.074;6.646;2023-02-18T13:38:14;10.15;;;1.92;;
59145;SDS011;44928;53.074;6.646;2023-02-18T13:41:00;10.07;;;2.00;;
59145;SDS011;44928;53.074;6.646;2023-02-18T13:46:02;13.10;;;2.75;;
59145;SDS011;44928;53.074;6.646;2023-02-18T13:48:34;14.73;;;2.95;;
59145;SDS011;44928;53.074;6.646;2023-02-18T13:51:38;14.40;;;2.50;;
59145;SDS011;44928;53.074;6.646;2023-02-18T13:56:41;13.32;;;2.00;;
59145;SDS011;44928;53.074;6.646;2023-02-18T14:01:47;11.75;;;2.13;;
59145;SDS011;44928;53.074;6.646;2023-02-18T14:04:34;10.77;;;2.67;;
59145;SDS011;44928;53.074;6.646;2023-02-18T14:07:18;14.65;;;2.25;;
59145;SDS011;44928;53.074;6.646;2023-02-18T14:09:54;12.45;;;2.40;;
59145;SDS011;44928;53.074;6.646;2023-02-18T14:13:37;8.38;;;1.75;;
59145;SDS011;44928;53.074;6.646;2023-02-18T14:36:39;14.00;;;2.28;;
59145;SDS011;44928;53.074;6.646;2023-02-18T14:42:16;12.15;;;2.70;;
59145;SDS011;44928;53.074;6.646;2023-02-18T14:50:40;11.68;;;2.03;;
59145;SDS011;44928;53.074;6.646;2023-02-18T14:53:11;12.30;;;2.35;;
59145;SDS011;44928;53.074;6.646;2023-02-18T14:55:43;9.25;;;2.13;;
59145;SDS011;44928;53.074;6.646;2023-02-18T15:01:06;12.55;;;2.35;;
59145;SDS011;44928;53.074;6.646;2023-02-18T15:03:47;14.35;;;2.67;;
59145;SDS011;44928;53.074;6.646;2023-02-18T15:08:52;14.57;;;2.70;;
59145;SDS011;44928;53.074;6.646;2023-02-18T15:11:19;12.80;;;2.53;;
59145;SDS011;44928;53.074;6.646;2023-02-18T15:13:48;11.30;;;2.03;;
59145;SDS011;44928;53.074;6.646;2023-02-18T15:16:47;15.52;;;1.90;;
59145;SDS011;44928;53.074;6.646;2023-02-18T15:19:11;11.20;;;1.88;;
59145;SDS011;44928;53.074;6.646;2023-02-18T15:21:47;10.65;;;2.17;;
59145;SDS011;44928;53.074;6.646;2023-02-18T15:26:56;16.10;;;2.78;;
59145;SDS011;44928;53.074;6.646;2023-02-18T15:29:27;10.35;;;2.45;;
59145;SDS011;44928;53.074;6.646;2023-02-18T15:31:56;12.82;;;2.35;;
59145;SDS011;44928;53.074;6.646;2023-02-18T15:36:55;13.73;;;2.67;;
59145;SDS011;44928;53.074;6.646;2023-02-18T15:39:30;13.73;;;1.92;;
59145;SDS011;44928;53.074;6.646;2023-02-18T15:42:00;13.10;;;2.20;;
59145;SDS011;44928;53.074;6.646;2023-02-18T15:44:31;14.05;;;2.30;;
59145;SDS011;44928;53.074;6.646;2023-02-18T15:47:06;14.13;;;2.88;;
59145;SDS011;44928;53.074;6.646;2023-02-18T15:49:34;13.00;;;2.08;;
59145;SDS011;44928;53.074;6.646;2023-02-18T15:52:02;10.93;;;1.98;;
59145;SDS011;44928;53.074;6.646;2023-02-18T15:54:29;14.40;;;2.40;;
59145;SDS011;44928;53.074;6.646;2023-02-18T15:56:56;11.00;;;2.10;;
59145;SDS011;44928;53.074;6.646;2023-02-18T15:59:27;10.05;;;2.05;;
59145;SDS011;44928;53.074;6.646;2023-02-18T16:04:32;11.25;;;2.28;;
59145;SDS011;44928;53.074;6.646;2023-02-18T16:07:03;16.37;;;2.90;;
59145;SDS011;44928;53.074;6.646;2023-02-18T16:09:43;14.98;;;2.55;;
59145;SDS011;44928;53.074;6.646;2023-02-18T16:12:52;15.15;;;2.08;;
59145;SDS011;44928;53.074;6.646;2023-02-18T16:14:58;12.75;;;2.78;;
59145;SDS011;44928;53.074;6.646;2023-02-18T16:17:25;16.00;;;2.65;;
59145;SDS011;44928;53.074;6.646;2023-02-18T16:30:31;13.52;;;2.35;;
59145;SDS011;44928;53.074;6.646;2023-02-18T16:32:58;15.85;;;3.63;;
59145;SDS011;44928;53.074;6.646;2023-02-18T16:35:25;11.85;;;2.28;;
59145;SDS011;44928;53.074;6.646;2023-02-18T16:37:53;14.40;;;3.38;;
59145;SDS011;44928;53.074;6.646;2023-02-18T16:42:57;17.23;;;2.85;;
59145;SDS011;44928;53.074;6.646;2023-02-18T16:45:32;14.52;;;3.28;;
59145;SDS011;44928;53.074;6.646;2023-02-18T16:48:02;12.35;;;2.63;;
59145;SDS011;44928;53.074;6.646;2023-02-18T16:50:30;12.27;;;2.67;;
59145;SDS011;44928;53.074;6.646;2023-02-18T16:52:58;13.68;;;2.47;;
59145;SDS011;44928;53.074;6.646;2023-02-18T16:55:28;12.93;;;2.10;;
59145;SDS011;44928;53.074;6.646;2023-02-18T16:57:54;14.75;;;2.90;;
59145;SDS011;44928;53.074;6.646;2023-02-18T17:00:21;13.85;;;2.67;;
59145;SDS011;44928;53.074;6.646;2023-02-18T17:02:48;16.20;;;2.85;;
59145;SDS011;44928;53.074;6.646;2023-02-18T17:05:19;18.92;;;3.60;;
59145;SDS011;44928;53.074;6.646;2023-02-18T17:08:30;16.40;;;2.80;;
59145;SDS011;44928;53.074;6.646;2023-02-18T17:10:51;13.70;;;2.83;;
59145;SDS011;44928;53.074;6.646;2023-02-18T17:13:20;16.35;;;2.53;;
59145;SDS011;44928;53.074;6.646;2023-02-18T17:15:49;11.80;;;2.17;;
59145;SDS011;44928;53.074;6.646;2023-02-18T17:18:16;15.57;;;2.70;;
59145;SDS011;44928;53.074;6.646;2023-02-18T17:20:42;14.35;;;2.78;;
59145;SDS011;44928;53.074;6.646;2023-02-18T17:23:11;17.45;;;3.58;;
59145;SDS011;44928;53.074;6.646;2023-02-18T17:25:42;13.30;;;2.58;;
59145;SDS011;44928;53.074;6.646;2023-02-18T17:28:09;13.45;;;2.88;;
59145;SDS011;44928;53.074;6.646;2023-02-18T17:30:36;14.13;;;2.33;;
59145;SDS011;44928;53.074;6.646;2023-02-18T17:33:04;16.00;;;2.58;;
59145;SDS011;44928;53.074;6.646;2023-02-18T17:35:30;14.35;;;2.85;;
59145;SDS011;44928;53.074;6.646;2023-02-18T17:37:57;15.35;;;3.42;;
59145;SDS011;44928;53.074;6.646;2023-02-18T17:40:25;16.08;;;2.67;;
59145;SDS011;44928;53.074;6.646;2023-02-18T17:42:52;17.15;;;3.65;;
59145;SDS011;44928;53.074;6.646;2023-02-18T17:45:35;13.80;;;2.67;;
59145;SDS011;44928;53.074;6.646;2023-02-18T17:48:08;13.40;;;2.92;;
59145;SDS011;44928;53.074;6.646;2023-02-18T17:50:34;15.68;;;2.38;;
59145;SDS011;44928;53.074;6.646;2023-02-18T17:53:00;18.10;;;3.72;;
59145;SDS011;44928;53.074;6.646;2023-02-18T17:55:27;17.42;;;3.10;;